sensor_id;sensor_type;location;lat;lon;timestamp;temperature;humidity
16315;DHT22;8266;52.150;4.768;2023-12-28T00:02:01;12.90;99.90
16315;DHT22;8266;52.150;4.768;2023-12-28T00:04:29;12.90;99.90
16315;DHT22;8266;52.150;4.768;2023-12-28T00:06:56;13.00;99.90
16315;DHT22;8266;52.150;4.768;2023-12-28T00:09:23;13.00;99.90
16315;DHT22;8266;52.150;4.768;2023-12-28T00:11:50;13.00;99.90
16315;DHT22;8266;52.150;4.768;2023-12-28T00:14:17;13.00;99.90
16315;DHT22;8266;52.150;4.768;2023-12-28T00:16:45;13.00;99.90
16315;DHT22;8266;52.150;4.768;2023-12-28T00:19:12;13.10;99.90
16315;DHT22;8266;52.150;4.768;2023-12-28T00:21:40;13.10;99.90
16315;DHT22;8266;52.150;4.768;2023-12-28T00:24:07;13.00;99.90
16315;DHT22;8266;52.150;4.768;2023-12-28T00:26:34;13.10;99.90
16315;DHT22;8266;52.150;4.768;2023-12-28T00:29:01;13.10;99.90
16315;DHT22;8266;52.150;4.768;2023-12-28T00:31:28;13.10;99.90
16315;DHT22;8266;52.150;4.768;2023-12-28T00:33:55;13.10;99.90
16315;DHT22;8266;52.150;4.768;2023-12-28T00:36:22;13.10;99.90
16315;DHT22;8266;52.150;4.768;2023-12-28T00:38:52;13.10;99.90
16315;DHT22;8266;52.150;4.768;2023-12-28T00:41:19;13.10;99.90
16315;DHT22;8266;52.150;4.768;2023-12-28T00:43:46;13.10;99.90
16315;DHT22;8266;52.150;4.768;2023-12-28T00:46:13;13.00;99.90
16315;DHT22;8266;52.150;4.768;2023-12-28T00:48:40;13.00;99.90
16315;DHT22;8266;52.150;4.768;2023-12-28T00:51:07;13.00;99.90
16315;DHT22;8266;52.150;4.768;2023-12-28T00:53:34;13.00;99.90
16315;DHT22;8266;52.150;4.768;2023-12-28T00:56:03;13.00;99.90
16315;DHT22;8266;52.150;4.768;2023-12-28T00:58:30;13.00;99.90
16315;DHT22;8266;52.150;4.768;2023-12-28T01:00:57;13.00;99.90
16315;DHT22;8266;52.150;4.768;2023-12-28T01:03:24;13.00;99.90
16315;DHT22;8266;52.150;4.768;2023-12-28T01:05:52;13.00;99.90
16315;DHT22;8266;52.150;4.768;2023-12-28T01:08:18;13.00;99.90
16315;DHT22;8266;52.150;4.768;2023-12-28T01:10:45;13.00;99.90
16315;DHT22;8266;52.150;4.768;2023-12-28T01:13:15;13.00;99.90
16315;DHT22;8266;52.150;4.768;2023-12-28T01:15:41;13.00;99.90
16315;DHT22;8266;52.150;4.768;2023-12-28T01:18:09;13.00;99.90
16315;DHT22;8266;52.150;4.768;2023-12-28T01:20:36;13.00;99.90
16315;DHT22;8266;52.150;4.768;2023-12-28T01:23:03;13.00;99.90
16315;DHT22;8266;52.150;4.768;2023-12-28T01:25:30;12.90;99.90
16315;DHT22;8266;52.150;4.768;2023-12-28T01:27:57;13.00;99.90
16315;DHT22;8266;52.150;4.768;2023-12-28T01:30:25;12.90;99.90
16315;DHT22;8266;52.150;4.768;2023-12-28T01:32:53;13.00;99.90
16315;DHT22;8266;52.150;4.768;2023-12-28T01:35:20;12.90;99.90
16315;DHT22;8266;52.150;4.768;2023-12-28T01:37:47;12.90;99.90
16315;DHT22;8266;52.150;4.768;2023-12-28T01:40:15;12.90;99.90
16315;DHT22;8266;52.150;4.768;2023-12-28T01:42:43;12.90;99.90
16315;DHT22;8266;52.150;4.768;2023-12-28T01:45:10;12.90;99.90
16315;DHT22;8266;52.150;4.768;2023-12-28T01:47:38;12.90;99.90
16315;DHT22;8266;52.150;4.768;2023-12-28T01:50:07;12.90;99.90
16315;DHT22;8266;52.150;4.768;2023-12-28T01:52:34;12.90;99.90
16315;DHT22;8266;52.150;4.768;2023-12-28T01:55:02;12.90;99.90
16315;DHT22;8266;52.150;4.768;2023-12-28T01:57:29;12.90;99.90
16315;DHT22;8266;52.150;4.768;2023-12-28T01:59:57;12.90;99.90
16315;DHT22;8266;52.150;4.768;2023-12-28T02:02:27;12.90;99.90
16315;DHT22;8266;52.150;4.768;2023-12-28T02:04:55;12.90;99.90
16315;DHT22;8266;52.150;4.768;2023-12-28T02:07:24;12.90;99.90
16315;DHT22;8266;52.150;4.768;2023-12-28T02:09:52;12.90;99.90
16315;DHT22;8266;52.150;4.768;2023-12-28T02:12:19;12.90;99.90
16315;DHT22;8266;52.150;4.768;2023-12-28T02:14:46;12.90;99.90
16315;DHT22;8266;52.150;4.768;2023-12-28T02:17:16;12.90;99.90
16315;DHT22;8266;52.150;4.768;2023-12-28T02:19:50;12.90;99.90
16315;DHT22;8266;52.150;4.768;2023-12-28T02:22:19;12.90;99.90
16315;DHT22;8266;52.150;4.768;2023-12-28T02:24:59;12.90;99.90
16315;DHT22;8266;52.150;4.768;2023-12-28T02:27:26;12.90;99.90
16315;DHT22;8266;52.150;4.768;2023-12-28T02:29:55;12.90;99.90
16315;DHT22;8266;52.150;4.768;2023-12-28T02:32:27;12.90;99.90
16315;DHT22;8266;52.150;4.768;2023-12-28T02:35:04;12.90;99.90
16315;DHT22;8266;52.150;4.768;2023-12-28T02:37:33;12.90;99.90
16315;DHT22;8266;52.150;4.768;2023-12-28T02:40:03;12.90;99.90
16315;DHT22;8266;52.150;4.768;2023-12-28T02:42:30;12.90;99.90
16315;DHT22;8266;52.150;4.768;2023-12-28T02:44:57;12.80;99.90
16315;DHT22;8266;52.150;4.768;2023-12-28T02:47:24;12.80;99.90
16315;DHT22;8266;52.150;4.768;2023-12-28T02:49:51;12.80;99.90
16315;DHT22;8266;52.150;4.768;2023-12-28T02:52:19;12.80;99.90
16315;DHT22;8266;52.150;4.768;2023-12-28T02:54:46;12.80;99.90
16315;DHT22;8266;52.150;4.768;2023-12-28T02:57:14;12.80;99.90
16315;DHT22;8266;52.150;4.768;2023-12-28T02:59:44;12.80;99.90
16315;DHT22;8266;52.150;4.768;2023-12-28T03:02:11;12.70;99.90
16315;DHT22;8266;52.150;4.768;2023-12-28T03:04:38;12.70;99.90
16315;DHT22;8266;52.150;4.768;2023-12-28T03:07:07;12.80;99.90
16315;DHT22;8266;52.150;4.768;2023-12-28T03:09:35;12.80;99.90
16315;DHT22;8266;52.150;4.768;2023-12-28T03:12:04;12.70;99.90
16315;DHT22;8266;52.150;4.768;2023-12-28T03:14:33;12.80;99.90
16315;DHT22;8266;52.150;4.768;2023-12-28T03:17:00;12.70;99.90
16315;DHT22;8266;52.150;4.768;2023-12-28T03:19:27;12.80;99.90
16315;DHT22;8266;52.150;4.768;2023-12-28T03:21:54;12.70;99.90
16315;DHT22;8266;52.150;4.768;2023-12-28T03:24:21;12.80;99.90
16315;DHT22;8266;52.150;4.768;2023-12-28T03:26:48;12.70;99.90
16315;DHT22;8266;52.150;4.768;2023-12-28T03:29:16;12.70;99.90
16315;DHT22;8266;52.150;4.768;2023-12-28T03:31:44;12.70;99.90
16315;DHT22;8266;52.150;4.768;2023-12-28T03:34:11;12.70;99.90
16315;DHT22;8266;52.150;4.768;2023-12-28T03:36:38;12.70;99.90
16315;DHT22;8266;52.150;4.768;2023-12-28T03:39:05;12.70;99.90
16315;DHT22;8266;52.150;4.768;2023-12-28T03:41:32;12.70;99.90
16315;DHT22;8266;52.150;4.768;2023-12-28T03:43:59;12.70;99.90
16315;DHT22;8266;52.150;4.768;2023-12-28T03:46:27;12.70;99.90
16315;DHT22;8266;52.150;4.768;2023-12-28T03:48:55;12.70;99.90
16315;DHT22;8266;52.150;4.768;2023-12-28T03:51:22;12.60;99.90
16315;DHT22;8266;52.150;4.768;2023-12-28T03:53:49;12.60;99.90
16315;DHT22;8266;52.150;4.768;2023-12-28T03:56:21;12.60;99.90
16315;DHT22;8266;52.150;4.768;2023-12-28T03:58:48;12.60;99.90
16315;DHT22;8266;52.150;4.768;2023-12-28T04:01:16;12.60;99.90
16315;DHT22;8266;52.150;4.768;2023-12-28T04:03:44;12.70;99.90
16315;DHT22;8266;52.150;4.768;2023-12-28T04:06:13;12.70;99.90
16315;DHT22;8266;52.150;4.768;2023-12-28T04:08:40;12.70;99.90
16315;DHT22;8266;52.150;4.768;2023-12-28T04:11:07;12.70;99.90
16315;DHT22;8266;52.150;4.768;2023-12-28T04:13:34;12.80;99.90
16315;DHT22;8266;52.150;4.768;2023-12-28T04:16:02;12.80;99.90
16315;DHT22;8266;52.150;4.768;2023-12-28T04:18:29;12.90;99.90
16315;DHT22;8266;52.150;4.768;2023-12-28T04:20:56;12.90;99.90
16315;DHT22;8266;52.150;4.768;2023-12-28T04:23:25;12.90;99.90
16315;DHT22;8266;52.150;4.768;2023-12-28T04:25:52;13.00;99.90
16315;DHT22;8266;52.150;4.768;2023-12-28T04:28:19;13.00;99.90
16315;DHT22;8266;52.150;4.768;2023-12-28T04:30:46;13.00;99.90
16315;DHT22;8266;52.150;4.768;2023-12-28T04:33:13;13.10;99.90
16315;DHT22;8266;52.150;4.768;2023-12-28T04:35:40;13.10;99.90
16315;DHT22;8266;52.150;4.768;2023-12-28T04:38:08;13.10;99.90
16315;DHT22;8266;52.150;4.768;2023-12-28T04:40:37;13.10;99.90
16315;DHT22;8266;52.150;4.768;2023-12-28T04:43:04;13.10;99.90
16315;DHT22;8266;52.150;4.768;2023-12-28T04:45:31;13.10;99.90
16315;DHT22;8266;52.150;4.768;2023-12-28T04:47:58;13.20;99.90
16315;DHT22;8266;52.150;4.768;2023-12-28T04:50:25;13.20;99.90
16315;DHT22;8266;52.150;4.768;2023-12-28T04:52:52;13.20;99.90
16315;DHT22;8266;52.150;4.768;2023-12-28T04:55:19;13.20;99.90
16315;DHT22;8266;52.150;4.768;2023-12-28T04:57:48;13.20;99.90
16315;DHT22;8266;52.150;4.768;2023-12-28T05:00:15;13.20;99.90
16315;DHT22;8266;52.150;4.768;2023-12-28T05:02:42;13.20;99.90
16315;DHT22;8266;52.150;4.768;2023-12-28T05:05:11;13.20;99.90
16315;DHT22;8266;52.150;4.768;2023-12-28T05:07:38;13.30;99.90
16315;DHT22;8266;52.150;4.768;2023-12-28T05:10:06;13.30;99.90
16315;DHT22;8266;52.150;4.768;2023-12-28T05:12:33;13.30;99.90
16315;DHT22;8266;52.150;4.768;2023-12-28T05:15:02;13.30;99.90
16315;DHT22;8266;52.150;4.768;2023-12-28T05:17:29;13.30;99.90
16315;DHT22;8266;52.150;4.768;2023-12-28T05:19:56;13.30;99.90
16315;DHT22;8266;52.150;4.768;2023-12-28T05:22:23;13.40;99.90
16315;DHT22;8266;52.150;4.768;2023-12-28T05:24:50;13.40;99.90
16315;DHT22;8266;52.150;4.768;2023-12-28T05:27:17;13.40;99.90
16315;DHT22;8266;52.150;4.768;2023-12-28T05:29:45;13.40;99.90
16315;DHT22;8266;52.150;4.768;2023-12-28T05:32:13;13.40;99.90
16315;DHT22;8266;52.150;4.768;2023-12-28T05:34:40;13.40;99.90
16315;DHT22;8266;52.150;4.768;2023-12-28T05:37:07;13.40;99.90
16315;DHT22;8266;52.150;4.768;2023-12-28T05:39:34;13.40;99.90
16315;DHT22;8266;52.150;4.768;2023-12-28T05:42:01;13.40;99.90
16315;DHT22;8266;52.150;4.768;2023-12-28T05:44:28;13.40;99.90
16315;DHT22;8266;52.150;4.768;2023-12-28T05:46:55;13.40;99.90
16315;DHT22;8266;52.150;4.768;2023-12-28T05:49:24;13.50;99.90
16315;DHT22;8266;52.150;4.768;2023-12-28T05:51:54;13.40;99.90
16315;DHT22;8266;52.150;4.768;2023-12-28T05:54:21;13.40;99.90
16315;DHT22;8266;52.150;4.768;2023-12-28T05:56:48;13.40;99.90
16315;DHT22;8266;52.150;4.768;2023-12-28T05:59:15;13.50;99.90
16315;DHT22;8266;52.150;4.768;2023-12-28T06:01:42;13.40;99.90
16315;DHT22;8266;52.150;4.768;2023-12-28T06:04:10;13.50;99.90
16315;DHT22;8266;52.150;4.768;2023-12-28T06:06:38;13.40;99.90
16315;DHT22;8266;52.150;4.768;2023-12-28T06:09:06;13.50;99.90
16315;DHT22;8266;52.150;4.768;2023-12-28T06:11:33;13.50;99.90
16315;DHT22;8266;52.150;4.768;2023-12-28T06:14:00;13.50;99.90
16315;DHT22;8266;52.150;4.768;2023-12-28T06:16:27;13.50;99.90
16315;DHT22;8266;52.150;4.768;2023-12-28T06:18:58;13.50;99.90
16315;DHT22;8266;52.150;4.768;2023-12-28T06:21:25;13.50;99.90
16315;DHT22;8266;52.150;4.768;2023-12-28T06:23:54;13.60;99.90
16315;DHT22;8266;52.150;4.768;2023-12-28T06:26:21;13.50;99.90
16315;DHT22;8266;52.150;4.768;2023-12-28T06:28:48;13.50;99.90
16315;DHT22;8266;52.150;4.768;2023-12-28T06:31:15;13.60;99.90
16315;DHT22;8266;52.150;4.768;2023-12-28T06:33:42;13.60;99.90
16315;DHT22;8266;52.150;4.768;2023-12-28T06:36:11;13.60;99.90
16315;DHT22;8266;52.150;4.768;2023-12-28T06:38:38;13.50;99.90
16315;DHT22;8266;52.150;4.768;2023-12-28T06:41:11;13.50;99.90
16315;DHT22;8266;52.150;4.768;2023-12-28T06:43:39;13.50;99.90
16315;DHT22;8266;52.150;4.768;2023-12-28T06:46:06;13.50;99.90
16315;DHT22;8266;52.150;4.768;2023-12-28T06:48:33;13.50;99.90
16315;DHT22;8266;52.150;4.768;2023-12-28T06:51:00;13.50;99.90
16315;DHT22;8266;52.150;4.768;2023-12-28T06:53:27;13.50;99.90
16315;DHT22;8266;52.150;4.768;2023-12-28T06:55:55;13.50;99.90
16315;DHT22;8266;52.150;4.768;2023-12-28T06:58:23;13.50;99.90
16315;DHT22;8266;52.150;4.768;2023-12-28T07:00:50;13.50;99.90
16315;DHT22;8266;52.150;4.768;2023-12-28T07:03:17;13.40;99.90
16315;DHT22;8266;52.150;4.768;2023-12-28T07:05:45;13.40;99.90
16315;DHT22;8266;52.150;4.768;2023-12-28T07:08:12;13.40;99.90
16315;DHT22;8266;52.150;4.768;2023-12-28T07:10:39;13.30;99.90
16315;DHT22;8266;52.150;4.768;2023-12-28T07:13:06;13.30;99.90
16315;DHT22;8266;52.150;4.768;2023-12-28T07:15:35;13.30;99.90
16315;DHT22;8266;52.150;4.768;2023-12-28T07:18:02;13.20;99.90
16315;DHT22;8266;52.150;4.768;2023-12-28T07:20:30;13.20;99.90
16315;DHT22;8266;52.150;4.768;2023-12-28T07:22:57;13.20;99.90
16315;DHT22;8266;52.150;4.768;2023-12-28T07:25:24;13.10;99.90
16315;DHT22;8266;52.150;4.768;2023-12-28T07:27:51;13.10;99.90
16315;DHT22;8266;52.150;4.768;2023-12-28T07:30:18;13.10;99.90
16315;DHT22;8266;52.150;4.768;2023-12-28T07:32:46;13.00;99.90
16315;DHT22;8266;52.150;4.768;2023-12-28T07:35:13;13.00;99.90
16315;DHT22;8266;52.150;4.768;2023-12-28T07:37:40;13.00;99.90
16315;DHT22;8266;52.150;4.768;2023-12-28T07:40:08;13.00;99.90
16315;DHT22;8266;52.150;4.768;2023-12-28T07:42:35;13.00;99.90
16315;DHT22;8266;52.150;4.768;2023-12-28T07:45:02;13.00;99.90
16315;DHT22;8266;52.150;4.768;2023-12-28T07:47:29;13.10;99.90
16315;DHT22;8266;52.150;4.768;2023-12-28T07:49:58;13.10;99.90
16315;DHT22;8266;52.150;4.768;2023-12-28T07:52:26;13.10;99.90
16315;DHT22;8266;52.150;4.768;2023-12-28T07:54:53;13.10;99.90
16315;DHT22;8266;52.150;4.768;2023-12-28T07:57:20;13.10;99.90
16315;DHT22;8266;52.150;4.768;2023-12-28T07:59:48;13.10;99.90
16315;DHT22;8266;52.150;4.768;2023-12-28T08:02:15;13.10;99.90
16315;DHT22;8266;52.150;4.768;2023-12-28T08:04:42;13.20;99.90
16315;DHT22;8266;52.150;4.768;2023-12-28T08:07:10;13.20;99.90
16315;DHT22;8266;52.150;4.768;2023-12-28T08:09:37;13.20;99.90
16315;DHT22;8266;52.150;4.768;2023-12-28T08:12:05;13.10;99.90
16315;DHT22;8266;52.150;4.768;2023-12-28T08:14:32;13.20;99.90
16315;DHT22;8266;52.150;4.768;2023-12-28T08:16:59;13.20;99.90
16315;DHT22;8266;52.150;4.768;2023-12-28T08:19:26;13.20;99.90
16315;DHT22;8266;52.150;4.768;2023-12-28T08:21:53;13.20;99.90
16315;DHT22;8266;52.150;4.768;2023-12-28T08:24:22;13.20;99.90
16315;DHT22;8266;52.150;4.768;2023-12-28T08:26:49;13.20;99.90
16315;DHT22;8266;52.150;4.768;2023-12-28T08:29:18;13.20;99.90
16315;DHT22;8266;52.150;4.768;2023-12-28T08:31:48;13.20;99.90
16315;DHT22;8266;52.150;4.768;2023-12-28T08:34:15;13.20;99.90
16315;DHT22;8266;52.150;4.768;2023-12-28T08:36:42;13.30;99.90
16315;DHT22;8266;52.150;4.768;2023-12-28T08:39:09;13.30;99.90
16315;DHT22;8266;52.150;4.768;2023-12-28T08:41:37;13.30;99.90
16315;DHT22;8266;52.150;4.768;2023-12-28T08:44:04;13.30;99.90
16315;DHT22;8266;52.150;4.768;2023-12-28T08:46:32;13.30;99.90
16315;DHT22;8266;52.150;4.768;2023-12-28T08:48:59;13.30;99.90
16315;DHT22;8266;52.150;4.768;2023-12-28T08:51:26;13.30;99.90
16315;DHT22;8266;52.150;4.768;2023-12-28T08:53:53;13.30;99.90
16315;DHT22;8266;52.150;4.768;2023-12-28T08:56:20;13.30;99.90
16315;DHT22;8266;52.150;4.768;2023-12-28T08:58:49;13.30;99.90
16315;DHT22;8266;52.150;4.768;2023-12-28T09:01:18;13.30;99.90
16315;DHT22;8266;52.150;4.768;2023-12-28T09:03:48;13.30;99.90
16315;DHT22;8266;52.150;4.768;2023-12-28T09:06:15;13.30;99.90
16315;DHT22;8266;52.150;4.768;2023-12-28T09:08:42;13.30;99.90
16315;DHT22;8266;52.150;4.768;2023-12-28T09:11:10;13.40;99.90
16315;DHT22;8266;52.150;4.768;2023-12-28T09:13:38;13.40;99.90
16315;DHT22;8266;52.150;4.768;2023-12-28T09:16:07;13.40;99.90
16315;DHT22;8266;52.150;4.768;2023-12-28T09:18:34;13.40;99.90
16315;DHT22;8266;52.150;4.768;2023-12-28T09:21:03;13.40;99.90
16315;DHT22;8266;52.150;4.768;2023-12-28T09:23:31;13.50;99.90
16315;DHT22;8266;52.150;4.768;2023-12-28T09:25:58;13.50;99.90
16315;DHT22;8266;52.150;4.768;2023-12-28T09:28:25;13.50;99.90
16315;DHT22;8266;52.150;4.768;2023-12-28T09:30:52;13.60;99.90
16315;DHT22;8266;52.150;4.768;2023-12-28T09:33:21;13.60;99.90
16315;DHT22;8266;52.150;4.768;2023-12-28T09:35:48;13.60;99.90
16315;DHT22;8266;52.150;4.768;2023-12-28T09:38:15;13.70;99.90
16315;DHT22;8266;52.150;4.768;2023-12-28T09:40:43;13.80;99.90
16315;DHT22;8266;52.150;4.768;2023-12-28T09:43:15;13.80;99.90
16315;DHT22;8266;52.150;4.768;2023-12-28T09:45:46;13.80;99.90
16315;DHT22;8266;52.150;4.768;2023-12-28T09:48:15;13.90;99.90
16315;DHT22;8266;52.150;4.768;2023-12-28T09:50:45;13.90;99.90
16315;DHT22;8266;52.150;4.768;2023-12-28T09:53:12;13.90;99.90
16315;DHT22;8266;52.150;4.768;2023-12-28T09:55:40;13.90;99.90
16315;DHT22;8266;52.150;4.768;2023-12-28T09:58:07;13.90;99.90
16315;DHT22;8266;52.150;4.768;2023-12-28T10:00:35;13.90;99.90
16315;DHT22;8266;52.150;4.768;2023-12-28T10:03:03;13.90;99.90
16315;DHT22;8266;52.150;4.768;2023-12-28T10:05:30;13.90;99.90
16315;DHT22;8266;52.150;4.768;2023-12-28T10:07:58;13.90;99.90
16315;DHT22;8266;52.150;4.768;2023-12-28T10:10:26;13.80;99.90
16315;DHT22;8266;52.150;4.768;2023-12-28T10:12:53;13.90;99.90
16315;DHT22;8266;52.150;4.768;2023-12-28T10:15:20;13.80;99.90
16315;DHT22;8266;52.150;4.768;2023-12-28T10:17:47;13.70;99.90
16315;DHT22;8266;52.150;4.768;2023-12-28T10:20:17;13.70;99.90
16315;DHT22;8266;52.150;4.768;2023-12-28T10:22:45;13.70;99.90
16315;DHT22;8266;52.150;4.768;2023-12-28T10:25:13;13.70;99.90
16315;DHT22;8266;52.150;4.768;2023-12-28T10:27:40;13.60;99.90
16315;DHT22;8266;52.150;4.768;2023-12-28T10:30:08;13.60;99.90
16315;DHT22;8266;52.150;4.768;2023-12-28T10:32:39;13.70;99.90
16315;DHT22;8266;52.150;4.768;2023-12-28T10:35:07;13.70;99.90
16315;DHT22;8266;52.150;4.768;2023-12-28T10:37:35;13.70;99.90
16315;DHT22;8266;52.150;4.768;2023-12-28T10:40:05;13.80;99.90
16315;DHT22;8266;52.150;4.768;2023-12-28T10:42:44;13.80;99.90
16315;DHT22;8266;52.150;4.768;2023-12-28T10:45:14;13.90;99.90
16315;DHT22;8266;52.150;4.768;2023-12-28T10:47:50;13.90;99.90
16315;DHT22;8266;52.150;4.768;2023-12-28T10:50:20;13.90;99.90
16315;DHT22;8266;52.150;4.768;2023-12-28T10:52:51;14.00;99.90
16315;DHT22;8266;52.150;4.768;2023-12-28T10:55:30;14.00;99.90
16315;DHT22;8266;52.150;4.768;2023-12-28T10:58:07;14.00;99.90
16315;DHT22;8266;52.150;4.768;2023-12-28T11:00:41;14.00;99.90
16315;DHT22;8266;52.150;4.768;2023-12-28T11:03:14;14.10;99.90
16315;DHT22;8266;52.150;4.768;2023-12-28T11:05:45;14.10;99.90
16315;DHT22;8266;52.150;4.768;2023-12-28T11:08:15;14.10;99.90
16315;DHT22;8266;52.150;4.768;2023-12-28T11:10:43;14.20;99.90
16315;DHT22;8266;52.150;4.768;2023-12-28T11:13:12;14.10;99.90
16315;DHT22;8266;52.150;4.768;2023-12-28T11:15:41;14.20;99.90
16315;DHT22;8266;52.150;4.768;2023-12-28T11:18:09;14.20;99.90
16315;DHT22;8266;52.150;4.768;2023-12-28T11:20:36;14.20;99.90
16315;DHT22;8266;52.150;4.768;2023-12-28T11:23:04;14.20;99.90
16315;DHT22;8266;52.150;4.768;2023-12-28T11:25:32;14.20;99.90
16315;DHT22;8266;52.150;4.768;2023-12-28T11:28:00;14.20;99.90
16315;DHT22;8266;52.150;4.768;2023-12-28T11:30:28;14.20;99.90
16315;DHT22;8266;52.150;4.768;2023-12-28T11:32:56;14.20;99.90
16315;DHT22;8266;52.150;4.768;2023-12-28T11:35:23;14.20;99.90
16315;DHT22;8266;52.150;4.768;2023-12-28T11:37:52;14.20;99.90
16315;DHT22;8266;52.150;4.768;2023-12-28T11:40:21;14.20;99.90
16315;DHT22;8266;52.150;4.768;2023-12-28T11:42:50;14.20;99.90
16315;DHT22;8266;52.150;4.768;2023-12-28T11:45:17;14.20;99.90
16315;DHT22;8266;52.150;4.768;2023-12-28T11:47:46;14.20;99.90
16315;DHT22;8266;52.150;4.768;2023-12-28T11:50:14;14.20;99.90
16315;DHT22;8266;52.150;4.768;2023-12-28T11:52:42;14.20;99.90
16315;DHT22;8266;52.150;4.768;2023-12-28T11:55:10;14.10;99.90
16315;DHT22;8266;52.150;4.768;2023-12-28T11:57:37;14.20;99.90
16315;DHT22;8266;52.150;4.768;2023-12-28T12:00:06;14.10;99.90
16315;DHT22;8266;52.150;4.768;2023-12-28T12:02:34;14.10;99.90
16315;DHT22;8266;52.150;4.768;2023-12-28T12:05:03;14.10;99.90
16315;DHT22;8266;52.150;4.768;2023-12-28T12:07:30;14.10;99.90
16315;DHT22;8266;52.150;4.768;2023-12-28T12:09:57;14.10;99.90
16315;DHT22;8266;52.150;4.768;2023-12-28T12:12:25;14.20;99.90
16315;DHT22;8266;52.150;4.768;2023-12-28T12:14:53;14.20;99.90
16315;DHT22;8266;52.150;4.768;2023-12-28T12:17:22;14.20;99.90
16315;DHT22;8266;52.150;4.768;2023-12-28T12:19:49;14.20;99.90
16315;DHT22;8266;52.150;4.768;2023-12-28T12:22:18;14.30;99.90
16315;DHT22;8266;52.150;4.768;2023-12-28T12:24:47;14.30;99.90
16315;DHT22;8266;52.150;4.768;2023-12-28T12:27:18;14.30;99.90
16315;DHT22;8266;52.150;4.768;2023-12-28T12:29:45;14.40;99.90
16315;DHT22;8266;52.150;4.768;2023-12-28T12:32:13;14.40;99.90
16315;DHT22;8266;52.150;4.768;2023-12-28T12:34:40;14.40;99.90
16315;DHT22;8266;52.150;4.768;2023-12-28T12:37:07;14.50;99.90
16315;DHT22;8266;52.150;4.768;2023-12-28T12:39:36;14.50;99.90
16315;DHT22;8266;52.150;4.768;2023-12-28T12:42:03;14.50;99.90
16315;DHT22;8266;52.150;4.768;2023-12-28T12:44:30;14.50;99.90
16315;DHT22;8266;52.150;4.768;2023-12-28T12:46:58;14.50;99.90
16315;DHT22;8266;52.150;4.768;2023-12-28T12:49:25;14.50;99.90
16315;DHT22;8266;52.150;4.768;2023-12-28T12:51:53;14.50;99.90
16315;DHT22;8266;52.150;4.768;2023-12-28T12:54:20;14.50;99.90
16315;DHT22;8266;52.150;4.768;2023-12-28T12:56:49;14.50;99.90
16315;DHT22;8266;52.150;4.768;2023-12-28T12:59:16;14.50;99.90
16315;DHT22;8266;52.150;4.768;2023-12-28T13:01:44;14.50;99.90
16315;DHT22;8266;52.150;4.768;2023-12-28T13:04:14;14.50;99.90
16315;DHT22;8266;52.150;4.768;2023-12-28T13:06:43;14.50;99.90
16315;DHT22;8266;52.150;4.768;2023-12-28T13:09:10;14.50;99.90
16315;DHT22;8266;52.150;4.768;2023-12-28T13:11:38;14.50;99.90
16315;DHT22;8266;52.150;4.768;2023-12-28T13:14:06;14.50;99.90
16315;DHT22;8266;52.150;4.768;2023-12-28T13:16:33;14.50;99.90
16315;DHT22;8266;52.150;4.768;2023-12-28T13:19:00;14.50;99.90
16315;DHT22;8266;52.150;4.768;2023-12-28T13:21:27;14.50;99.90
16315;DHT22;8266;52.150;4.768;2023-12-28T13:23:54;14.50;99.90
16315;DHT22;8266;52.150;4.768;2023-12-28T13:26:22;14.50;99.90
16315;DHT22;8266;52.150;4.768;2023-12-28T13:28:49;14.50;99.90
16315;DHT22;8266;52.150;4.768;2023-12-28T13:31:17;14.50;99.90
16315;DHT22;8266;52.150;4.768;2023-12-28T13:33:45;14.40;99.90
16315;DHT22;8266;52.150;4.768;2023-12-28T13:36:12;14.40;99.90
16315;DHT22;8266;52.150;4.768;2023-12-28T13:38:39;14.40;99.90
16315;DHT22;8266;52.150;4.768;2023-12-28T13:41:06;14.40;99.90
16315;DHT22;8266;52.150;4.768;2023-12-28T13:43:33;14.30;99.90
16315;DHT22;8266;52.150;4.768;2023-12-28T13:46:01;14.30;99.90
16315;DHT22;8266;52.150;4.768;2023-12-28T13:48:31;14.30;99.90
16315;DHT22;8266;52.150;4.768;2023-12-28T13:50:58;14.20;99.90
16315;DHT22;8266;52.150;4.768;2023-12-28T13:53:25;14.20;99.90
16315;DHT22;8266;52.150;4.768;2023-12-28T13:55:52;14.00;99.90
16315;DHT22;8266;52.150;4.768;2023-12-28T13:58:19;14.00;99.90
16315;DHT22;8266;52.150;4.768;2023-12-28T14:00:46;13.90;99.90
16315;DHT22;8266;52.150;4.768;2023-12-28T14:03:13;13.90;99.90
16315;DHT22;8266;52.150;4.768;2023-12-28T14:05:41;13.90;99.90
16315;DHT22;8266;52.150;4.768;2023-12-28T14:08:08;13.90;99.90
16315;DHT22;8266;52.150;4.768;2023-12-28T14:10:36;13.90;99.90
16315;DHT22;8266;52.150;4.768;2023-12-28T14:13:04;13.80;99.90
16315;DHT22;8266;52.150;4.768;2023-12-28T14:15:31;13.80;99.90
16315;DHT22;8266;52.150;4.768;2023-12-28T14:17:58;13.80;99.90
16315;DHT22;8266;52.150;4.768;2023-12-28T14:20:26;13.80;99.90
16315;DHT22;8266;52.150;4.768;2023-12-28T14:22:55;13.80;99.90
16315;DHT22;8266;52.150;4.768;2023-12-28T14:25:24;13.80;99.90
16315;DHT22;8266;52.150;4.768;2023-12-28T14:27:51;13.70;99.90
16315;DHT22;8266;52.150;4.768;2023-12-28T14:30:19;13.70;99.90
16315;DHT22;8266;52.150;4.768;2023-12-28T14:32:47;13.70;99.90
16315;DHT22;8266;52.150;4.768;2023-12-28T14:35:15;13.70;99.90
16315;DHT22;8266;52.150;4.768;2023-12-28T14:37:43;13.70;99.90
16315;DHT22;8266;52.150;4.768;2023-12-28T14:40:11;13.70;99.90
16315;DHT22;8266;52.150;4.768;2023-12-28T14:42:39;13.60;99.90
16315;DHT22;8266;52.150;4.768;2023-12-28T14:45:07;13.60;99.90
16315;DHT22;8266;52.150;4.768;2023-12-28T14:47:34;13.60;99.90
16315;DHT22;8266;52.150;4.768;2023-12-28T14:50:01;13.60;99.90
16315;DHT22;8266;52.150;4.768;2023-12-28T14:52:31;13.60;99.90
16315;DHT22;8266;52.150;4.768;2023-12-28T14:54:58;13.60;99.90
16315;DHT22;8266;52.150;4.768;2023-12-28T14:57:26;13.60;99.90
16315;DHT22;8266;52.150;4.768;2023-12-28T14:59:53;13.60;99.90
16315;DHT22;8266;52.150;4.768;2023-12-28T15:02:20;13.60;99.90
16315;DHT22;8266;52.150;4.768;2023-12-28T15:04:47;13.60;99.90
16315;DHT22;8266;52.150;4.768;2023-12-28T15:07:14;13.60;99.90
16315;DHT22;8266;52.150;4.768;2023-12-28T15:09:42;13.60;99.90
16315;DHT22;8266;52.150;4.768;2023-12-28T15:12:09;13.60;99.90
16315;DHT22;8266;52.150;4.768;2023-12-28T15:14:39;13.60;99.90
16315;DHT22;8266;52.150;4.768;2023-12-28T15:17:07;13.60;99.90
16315;DHT22;8266;52.150;4.768;2023-12-28T15:19:36;13.60;99.90
16315;DHT22;8266;52.150;4.768;2023-12-28T15:22:05;13.60;99.90
16315;DHT22;8266;52.150;4.768;2023-12-28T15:24:32;13.70;99.90
16315;DHT22;8266;52.150;4.768;2023-12-28T15:27:05;13.60;99.90
16315;DHT22;8266;52.150;4.768;2023-12-28T15:29:33;13.70;99.90
16315;DHT22;8266;52.150;4.768;2023-12-28T15:32:01;13.70;99.90
16315;DHT22;8266;52.150;4.768;2023-12-28T15:34:28;13.70;99.90
16315;DHT22;8266;52.150;4.768;2023-12-28T15:36:55;13.70;99.90
16315;DHT22;8266;52.150;4.768;2023-12-28T15:39:25;13.70;99.90
16315;DHT22;8266;52.150;4.768;2023-12-28T15:41:52;13.80;99.90
16315;DHT22;8266;52.150;4.768;2023-12-28T15:44:19;13.70;99.90
16315;DHT22;8266;52.150;4.768;2023-12-28T15:46:46;13.70;99.90
16315;DHT22;8266;52.150;4.768;2023-12-28T15:49:15;13.80;99.90